createdAt,value
2023-02-13T00:00:38.557Z,86.70
2023-02-13T00:05:36.931Z,86.80
2023-02-13T00:08:03.580Z,86.80
2023-02-13T00:10:30.121Z,86.80
2023-02-13T00:12:56.701Z,86.80
2023-02-13T00:15:23.293Z,86.80
2023-02-13T00:17:50.081Z,86.70
2023-02-13T00:20:16.668Z,86.80
2023-02-13T00:22:43.241Z,86.80
2023-02-13T00:25:09.944Z,86.70
2023-02-13T00:27:36.609Z,87.50
2023-02-13T00:30:04.550Z,87.50
2023-02-13T00:32:31.731Z,86.80
2023-02-13T00:34:58.434Z,86.80
2023-02-13T00:37:25.638Z,86.80
2023-02-13T00:39:52.492Z,86.70
2023-02-13T00:42:20.441Z,86.80
2023-02-13T00:44:47.003Z,86.80
2023-02-13T00:49:46.144Z,86.80
2023-02-13T00:52:13.174Z,86.80
2023-02-13T00:54:39.729Z,86.80
2023-02-13T00:57:06.300Z,86.80
2023-02-13T00:59:32.891Z,86.80
2023-02-13T01:01:59.433Z,86.80
2023-02-13T01:04:26.062Z,86.80
2023-02-13T01:06:52.605Z,87.50
2023-02-13T01:09:19.127Z,86.80
2023-02-13T01:11:45.673Z,86.90
2023-02-13T01:14:12.299Z,86.90
2023-02-13T01:16:38.989Z,86.80
2023-02-13T01:19:05.604Z,86.80
2023-02-13T01:21:32.184Z,86.80
2023-02-13T01:24:02.448Z,86.80
2023-02-13T01:26:29.034Z,86.80
2023-02-13T01:28:57.617Z,86.80
2023-02-13T01:31:24.499Z,86.80
2023-02-13T01:44:02.292Z,86.70
2023-02-13T02:04:52.808Z,86.80
2023-02-13T02:29:52.823Z,86.60
2023-02-13T02:50:22.695Z,86.60
2023-02-13T02:59:02.263Z,86.60
2023-02-13T03:07:22.356Z,86.50
2023-02-13T03:57:12.314Z,86.30
2023-02-13T04:33:47.154Z,86.20
2023-02-13T04:36:13.737Z,86.20
2023-02-13T04:38:40.367Z,86.20
2023-02-13T04:41:06.956Z,86.10
2023-02-13T04:43:33.554Z,86.20
2023-02-13T04:46:00.175Z,86.10
2023-02-13T04:48:26.910Z,86.10
2023-02-13T04:50:53.543Z,86.10
2023-02-13T04:53:20.152Z,86.00
2023-02-13T04:55:46.723Z,86.00
2023-02-13T04:58:13.341Z,86.10
2023-02-13T05:00:39.896Z,86.00
2023-02-13T05:03:08.800Z,86.10
2023-02-13T05:05:36.040Z,86.00
2023-02-13T05:08:02.699Z,86.00
2023-02-13T05:10:29.534Z,86.00
2023-02-13T05:12:56.382Z,86.10
2023-02-13T05:15:23.535Z,86.00
2023-02-13T05:17:50.356Z,86.00
2023-02-13T05:20:17.404Z,86.00
2023-02-13T05:23:03.973Z,86.00
2023-02-13T05:25:30.628Z,86.00
2023-02-13T05:27:57.274Z,86.00
2023-02-13T05:30:24.364Z,86.00
2023-02-13T05:35:23.771Z,86.00
2023-02-13T05:37:50.875Z,86.00
2023-02-13T05:40:17.763Z,86.00
2023-02-13T05:42:44.391Z,86.00
2023-02-13T05:45:11.024Z,86.00
2023-02-13T05:47:37.683Z,85.90
2023-02-13T05:50:04.672Z,85.90
2023-02-13T05:52:31.238Z,86.00
2023-02-13T05:54:57.807Z,85.90
2023-02-13T05:57:24.395Z,85.80
2023-02-13T05:59:50.954Z,85.80
2023-02-13T06:02:17.588Z,86.00
2023-02-13T06:04:44.191Z,85.90
2023-02-13T06:07:10.712Z,85.90
2023-02-13T06:09:37.406Z,86.10
2023-02-13T06:12:04.461Z,86.30
2023-02-13T06:14:31.080Z,86.20
2023-02-13T06:16:57.689Z,86.20
2023-02-13T06:19:24.271Z,86.10
2023-02-13T06:21:50.881Z,86.10
2023-02-13T06:24:17.486Z,86.00
2023-02-13T06:26:44.405Z,86.00
2023-02-13T06:29:12.599Z,86.00
2023-02-13T06:31:39.556Z,86.00
2023-02-13T06:34:06.133Z,86.00
2023-02-13T06:36:32.681Z,86.00
2023-02-13T06:38:59.216Z,86.00
2023-02-13T06:41:25.803Z,86.00
2023-02-13T06:43:52.356Z,86.00
2023-02-13T06:46:18.927Z,85.90
2023-02-13T06:48:45.443Z,85.90
2023-02-13T06:53:43.495Z,85.90
2023-02-13T06:56:11.126Z,85.90
2023-02-13T07:01:12.358Z,85.80
2023-02-13T07:13:53.051Z,85.80
2023-02-13T07:21:22.632Z,85.80
2023-02-13T07:29:05.673Z,85.80
2023-02-13T07:36:39.969Z,85.70
2023-02-13T07:39:06.608Z,85.70
2023-02-13T07:41:33.198Z,85.70
2023-02-13T07:43:59.735Z,85.60
2023-02-13T07:46:26.314Z,85.70
2023-02-13T07:48:53.344Z,85.70
2023-02-13T07:51:20.002Z,85.60
2023-02-13T07:53:46.766Z,85.60
2023-02-13T07:56:13.328Z,85.60
2023-02-13T08:01:15.659Z,85.60
2023-02-13T08:03:42.898Z,85.60
2023-02-13T08:06:09.604Z,85.50
2023-02-13T08:08:36.392Z,85.60
2023-02-13T08:11:26.034Z,85.50
2023-02-13T08:13:52.602Z,85.40
2023-02-13T08:16:19.369Z,85.40
2023-02-13T08:18:46.009Z,85.40
2023-02-13T08:21:14.847Z,85.40
2023-02-13T08:26:12.938Z,85.50
2023-02-13T08:28:39.614Z,85.40
2023-02-13T08:33:42.880Z,85.40
2023-02-13T08:41:12.834Z,85.40
2023-02-13T08:48:42.449Z,85.40
2023-02-13T09:03:52.834Z,85.30
2023-02-13T09:11:23.357Z,85.20
2023-02-13T09:13:53.374Z,85.30
2023-02-13T09:18:52.479Z,85.30
2023-02-13T10:06:32.334Z,85.10
2023-02-13T10:12:22.903Z,85.00
2023-02-13T11:58:14.042Z,85.00
2023-02-13T12:14:14.563Z,85.00
2023-02-13T12:16:47.279Z,85.00
2023-02-13T12:19:20.235Z,85.00
2023-02-13T12:22:14.943Z,85.00
2023-02-13T12:28:22.530Z,85.10
2023-02-13T12:33:56.630Z,85.10
2023-02-13T12:50:23.287Z,85.30
2023-02-13T12:56:13.690Z,85.30
2023-02-13T12:58:52.226Z,85.30
2023-02-13T13:01:35.182Z,85.40
2023-02-13T13:07:12.721Z,85.40
2023-02-13T13:10:14.254Z,85.50
2023-02-13T13:13:28.097Z,85.50
2023-02-13T13:16:05.805Z,85.50
2023-02-13T13:19:02.524Z,85.50
2023-02-13T13:21:38.006Z,85.50
2023-02-13T13:24:17.956Z,85.60
2023-02-13T13:26:50.469Z,85.60
2023-02-13T13:29:26.423Z,85.50
2023-02-13T13:31:58.501Z,85.50
2023-02-13T13:34:26.599Z,85.60
2023-02-13T13:37:07.042Z,85.60
2023-02-13T13:42:16.930Z,85.60
2023-02-13T13:44:49.437Z,85.70
2023-02-13T13:47:53.960Z,85.70
2023-02-13T13:50:29.784Z,85.60
2023-02-13T13:53:19.153Z,85.60
2023-02-13T13:56:02.325Z,85.60
2023-02-13T13:58:46.532Z,85.60
2023-02-13T14:01:29.536Z,85.70
2023-02-13T14:04:04.450Z,85.70
2023-02-13T14:06:45.827Z,85.80
2023-02-13T14:09:27.722Z,85.70
2023-02-13T14:11:56.465Z,85.70
2023-02-13T14:14:30.286Z,85.70
2023-02-13T14:16:59.020Z,85.70
2023-02-13T14:19:39.884Z,85.70
2023-02-13T14:22:24.663Z,85.70
2023-02-13T14:24:53.444Z,85.80
2023-02-13T14:27:26.217Z,85.90
2023-02-13T14:29:53.004Z,85.70
2023-02-13T14:32:34.225Z,85.80
2023-02-13T14:35:04.688Z,85.90
2023-02-13T14:37:36.592Z,85.80
2023-02-13T14:40:48.259Z,85.80
2023-02-13T14:43:22.999Z,85.80
2023-02-13T14:46:23.597Z,85.80
2023-02-13T14:49:06.533Z,85.80
2023-02-13T14:51:40.274Z,85.90
2023-02-13T14:54:26.231Z,85.70
2023-02-13T14:56:58.359Z,85.90
2023-02-13T14:59:32.532Z,85.90
2023-02-13T15:02:17.311Z,85.90
2023-02-13T15:04:48.729Z,85.90
2023-02-13T15:07:23.526Z,85.80
2023-02-13T15:09:55.619Z,85.90
2023-02-13T15:12:32.309Z,85.80
2023-02-13T15:17:40.060Z,85.90
2023-02-13T15:20:12.596Z,85.90
2023-02-13T15:22:42.332Z,85.90
2023-02-13T15:25:09.531Z,86.00
2023-02-13T15:30:21.859Z,85.90
2023-02-13T15:32:58.817Z,85.90
2023-02-13T15:35:27.154Z,85.90
2023-02-13T15:37:54.854Z,85.90
2023-02-13T15:40:25.688Z,85.90
2023-02-13T15:42:53.058Z,85.90
2023-02-13T15:47:56.200Z,86.00
2023-02-13T15:58:14.334Z,86.00
2023-02-13T16:00:42.928Z,86.10
2023-02-13T16:03:16.864Z,86.10
2023-02-13T16:05:46.460Z,86.10
2023-02-13T16:08:27.526Z,86.10
2023-02-13T16:19:44.508Z,86.10
2023-02-13T16:22:25.860Z,86.10
2023-02-13T16:24:55.822Z,86.10
2023-02-13T16:27:27.160Z,86.30
2023-02-13T16:30:06.573Z,86.20
2023-02-13T16:41:03.941Z,86.50
2023-02-13T16:43:36.820Z,86.70
2023-02-13T16:46:15.560Z,86.90
2023-02-13T16:57:15.257Z,87.70
2023-02-13T17:04:54.936Z,88.30
2023-02-13T17:10:23.690Z,88.40
2023-02-13T17:20:33.487Z,89.00
2023-02-13T17:23:05.920Z,89.00
2023-02-13T17:25:35.476Z,89.10
2023-02-13T17:33:25.861Z,82.80
2023-02-13T17:35:52.805Z,82.20
2023-02-13T17:40:46.648Z,81.80
2023-02-13T17:43:16.305Z,83.30
2023-02-13T17:45:43.639Z,84.10
2023-02-13T17:53:24.041Z,84.20
2023-02-13T17:58:22.512Z,84.40
2023-02-13T18:03:22.268Z,84.40
2023-02-13T18:10:52.832Z,84.70
2023-02-13T18:13:19.374Z,84.80
2023-02-13T18:43:43.633Z,85.20
2023-02-13T18:51:13.356Z,85.30
2023-02-13T18:56:12.254Z,85.30
2023-02-13T19:01:12.769Z,85.40
2023-02-13T19:06:14.388Z,85.30
2023-02-13T19:13:55.305Z,85.40
2023-02-13T19:16:22.700Z,85.40
2023-02-13T19:18:52.983Z,85.40
2023-02-13T19:21:25.008Z,85.40
2023-02-13T19:23:52.830Z,85.50
2023-02-13T19:26:22.860Z,86.30
2023-02-13T19:31:24.473Z,85.50
2023-02-13T19:36:25.212Z,85.50
2023-02-13T19:38:56.578Z,85.50
2023-02-13T19:41:23.862Z,85.50
2023-02-13T19:46:25.483Z,85.50
2023-02-13T19:48:52.600Z,85.70
2023-02-13T19:56:35.066Z,86.70
2023-02-13T20:01:33.456Z,87.40
2023-02-13T20:06:35.668Z,88.00
2023-02-13T20:09:06.057Z,88.30
2023-02-13T20:11:32.759Z,88.60
2023-02-13T20:14:05.224Z,88.80
2023-02-13T20:16:34.942Z,89.20
2023-02-13T20:19:06.855Z,89.50
2023-02-13T20:21:34.381Z,89.90
2023-02-13T20:24:03.017Z,90.00
2023-02-13T20:31:34.383Z,90.40
2023-02-13T20:36:33.479Z,90.70
2023-02-13T20:39:02.925Z,88.60
2023-02-13T20:41:33.357Z,83.50
2023-02-13T20:44:02.354Z,82.50
2023-02-13T20:46:33.672Z,81.70
2023-02-13T20:51:26.795Z,80.50
2023-02-13T20:53:54.492Z,80.70
2023-02-13T20:56:23.380Z,80.50
2023-02-13T21:01:25.865Z,81.20
2023-02-13T21:03:54.715Z,81.10
2023-02-13T21:06:23.536Z,80.40
2023-02-13T21:11:23.275Z,81.00
2023-02-13T21:16:25.262Z,82.30
2023-02-13T21:18:54.942Z,83.20
2023-02-13T21:21:22.730Z,83.40
2023-02-13T21:23:53.072Z,83.70
2023-02-13T21:28:52.437Z,84.20
2023-02-13T21:31:27.477Z,84.30
2023-02-13T21:33:56.552Z,84.50
2023-02-13T21:36:23.049Z,84.50
2023-02-13T21:43:53.007Z,84.70
2023-02-13T21:46:23.579Z,84.80
2023-02-13T21:48:58.620Z,85.60
2023-02-13T21:51:28.452Z,84.80
2023-02-13T21:53:55.363Z,84.70
2023-02-13T21:59:03.378Z,84.70
2023-02-13T22:01:35.824Z,84.70
2023-02-13T22:04:05.144Z,84.70
2023-02-13T22:06:34.868Z,84.70
2023-02-13T22:09:02.902Z,84.70
2023-02-13T22:11:30.503Z,84.70
2023-02-13T22:14:01.498Z,84.70
2023-02-13T22:16:32.587Z,84.70
2023-02-13T22:18:59.734Z,84.70
2023-02-13T22:21:28.855Z,84.70
2023-02-13T22:23:55.563Z,84.80
2023-02-13T22:26:25.045Z,84.70
2023-02-13T22:28:52.512Z,84.70
2023-02-13T22:31:19.912Z,84.80
2023-02-13T22:33:52.315Z,84.80
2023-02-13T22:36:25.650Z,84.80
2023-02-13T22:38:52.755Z,84.80
2023-02-13T22:41:22.631Z,84.80
2023-02-13T22:43:50.110Z,84.80
2023-02-13T22:46:23.107Z,84.80
2023-02-13T22:48:52.217Z,84.80
2023-02-13T22:51:24.951Z,84.80
2023-02-13T22:53:56.116Z,84.80
2023-02-13T22:56:23.727Z,84.80
2023-02-13T22:58:50.571Z,84.80
2023-02-13T23:01:23.297Z,84.80
2023-02-13T23:03:49.919Z,84.80
2023-02-13T23:06:17.656Z,84.90
2023-02-13T23:08:44.527Z,84.90
2023-02-13T23:11:32.839Z,84.80
2023-02-13T23:13:59.612Z,84.90
2023-02-13T23:16:26.737Z,85.60
2023-02-13T23:18:57.205Z,84.90
2023-02-13T23:21:25.310Z,84.90
2023-02-13T23:23:52.246Z,84.90
2023-02-13T23:26:19.547Z,84.80
2023-02-13T23:28:46.100Z,84.90
2023-02-13T23:31:12.765Z,84.90
2023-02-13T23:33:39.467Z,84.90
2023-02-13T23:36:06.594Z,84.90
2023-02-13T23:38:33.307Z,84.90
2023-02-13T23:41:09.130Z,84.90
2023-02-13T23:43:36.258Z,84.90
2023-02-13T23:46:04.480Z,84.90
2023-02-13T23:51:03.070Z,84.90
2023-02-13T23:53:29.692Z,84.90
2023-02-13T23:55:56.316Z,84.90
2023-02-13T23:58:23.183Z,84.90
